createdAt,value
2018-11-21T00:00:16.649Z,99859.36
2018-11-21T00:02:45.637Z,99851.83
2018-11-21T00:05:14.631Z,99848.12
2018-11-21T00:07:43.563Z,99852.85
2018-11-21T00:10:13.584Z,99853.13
2018-11-21T00:12:47.255Z,99852.80
2018-11-21T00:15:16.040Z,99852.53
2018-11-21T00:17:44.818Z,99856.30
2018-11-21T00:20:13.700Z,99861.50
2018-11-21T00:22:42.471Z,99857.88
2018-11-21T00:25:11.915Z,99860.59
2018-11-21T00:27:40.951Z,99858.59
2018-11-21T00:30:12.548Z,99857.22
2018-11-21T00:32:41.362Z,99863.71
2018-11-21T00:35:11.290Z,99864.95
2018-11-21T00:37:40.173Z,99861.06
2018-11-21T00:40:11.681Z,99863.00
2018-11-21T00:42:46.378Z,99863.39
2018-11-21T00:45:09.954Z,99872.75
2018-11-21T00:47:38.855Z,99874.55
2018-11-21T00:50:07.965Z,99878.06
2018-11-21T00:52:36.981Z,99877.54
2018-11-21T00:55:06.594Z,99885.33
2018-11-21T00:57:35.453Z,99887.30
2018-11-21T01:00:05.467Z,99882.66
2018-11-21T01:02:34.232Z,99889.62
2018-11-21T01:05:03.128Z,99884.14
2018-11-21T01:07:32.417Z,99876.56
2018-11-21T01:10:01.463Z,99883.69
2018-11-21T01:12:30.452Z,99881.41
2018-11-21T01:14:59.245Z,99874.62
2018-11-21T01:17:28.008Z,99878.63
2018-11-21T01:19:57.706Z,99876.67
2018-11-21T01:22:26.445Z,99878.73
2018-11-21T01:24:55.698Z,99881.02
2018-11-21T01:27:24.419Z,99880.63
2018-11-21T01:29:53.519Z,99883.55
2018-11-21T01:32:22.218Z,99890.88
2018-11-21T01:34:50.967Z,99886.35
2018-11-21T01:37:19.708Z,99885.23
2018-11-21T01:39:48.815Z,99886.77
2018-11-21T01:42:17.825Z,99883.61
2018-11-21T01:44:46.811Z,99883.93
2018-11-21T01:47:15.545Z,99888.56
2018-11-21T01:49:44.313Z,99883.78
2018-11-21T01:52:13.108Z,99888.52
2018-11-21T01:54:41.972Z,99887.58
2018-11-21T01:57:10.723Z,99888.30
2018-11-21T01:59:39.641Z,99885.89
2018-11-21T02:02:08.504Z,99885.75
2018-11-21T02:04:37.426Z,99880.80
2018-11-21T02:07:06.444Z,99889.35
2018-11-21T02:09:35.256Z,99888.97
2018-11-21T02:12:04.045Z,99887.53
2018-11-21T02:14:32.876Z,99891.92
2018-11-21T02:17:01.869Z,99894.77
2018-11-21T02:19:30.615Z,99886.73
2018-11-21T02:21:59.467Z,99888.80
2018-11-21T02:24:28.477Z,99891.41
2018-11-21T02:26:57.543Z,99882.70
2018-11-21T02:29:26.374Z,99887.79
2018-11-21T02:31:55.285Z,99884.00
2018-11-21T02:34:24.247Z,99892.70
2018-11-21T02:36:53.169Z,99889.19
2018-11-21T02:39:22.644Z,99890.31
2018-11-21T02:41:51.403Z,99884.67
2018-11-21T02:44:20.158Z,99884.77
2018-11-21T02:46:49.031Z,99883.47
2018-11-21T02:49:17.816Z,99885.15
2018-11-21T02:51:46.997Z,99888.91
2018-11-21T02:54:15.770Z,99893.92
2018-11-21T02:57:19.610Z,99893.32
2018-11-21T02:59:49.901Z,99891.50
2018-11-21T03:02:18.794Z,99895.61
2018-11-21T03:04:47.535Z,99898.59
2018-11-21T03:07:16.319Z,99892.94
2018-11-21T03:09:45.059Z,99898.66
2018-11-21T03:12:13.847Z,99901.56
2018-11-21T03:14:42.644Z,99900.48
2018-11-21T03:17:11.580Z,99896.52
2018-11-21T03:19:40.376Z,99896.77
2018-11-21T03:22:09.230Z,99902.41
2018-11-21T03:24:37.988Z,99904.00
2018-11-21T03:27:06.836Z,99901.86
2018-11-21T03:29:35.707Z,99903.06
2018-11-21T03:32:05.271Z,99905.05
2018-11-21T03:34:34.409Z,99902.84
2018-11-21T03:37:03.815Z,99902.39
2018-11-21T03:39:32.642Z,99899.67
2018-11-21T03:42:01.454Z,99896.91
2018-11-21T03:44:30.213Z,99897.83
2018-11-21T03:46:58.944Z,99910.19
2018-11-21T03:49:27.811Z,99909.80
2018-11-21T03:51:56.652Z,99909.79
2018-11-21T03:54:25.664Z,99906.66
2018-11-21T03:56:54.482Z,99908.67
2018-11-21T03:59:23.315Z,99906.42
2018-11-21T04:01:55.186Z,99901.86
2018-11-21T04:04:23.991Z,99897.50
2018-11-21T04:06:52.881Z,99899.57
2018-11-21T04:09:21.669Z,99913.23
2018-11-21T04:11:50.433Z,99912.94
2018-11-21T04:14:19.255Z,99913.86
2018-11-21T04:16:48.585Z,99910.80
2018-11-21T04:19:17.428Z,99914.38
2018-11-21T04:21:46.297Z,99910.34
2018-11-21T04:24:15.333Z,99914.48
2018-11-21T04:26:44.142Z,99911.09
2018-11-21T04:29:12.930Z,99914.14
2018-11-21T04:31:41.946Z,99918.11
2018-11-21T04:34:10.713Z,99925.61
2018-11-21T04:36:39.471Z,99928.64
2018-11-21T04:39:10.435Z,99932.39
2018-11-21T04:41:39.492Z,99927.27
2018-11-21T04:44:08.244Z,99932.92
2018-11-21T04:46:37.284Z,99934.99
2018-11-21T04:49:06.541Z,99942.78
2018-11-21T04:51:35.348Z,99946.61
2018-11-21T04:54:04.753Z,99947.98
2018-11-21T04:56:33.507Z,99948.61
2018-11-21T04:59:02.669Z,99953.09
2018-11-21T05:01:33.681Z,99957.59
2018-11-21T05:04:02.479Z,99959.42
2018-11-21T05:06:31.259Z,99958.05
2018-11-21T05:09:02.257Z,99964.69
2018-11-21T05:11:31.013Z,99957.28
2018-11-21T05:13:59.771Z,99958.44
2018-11-21T05:16:35.656Z,99965.53
2018-11-21T05:19:09.661Z,99969.57
2018-11-21T05:21:38.406Z,99964.55
2018-11-21T05:24:07.159Z,99970.20
2018-11-21T05:26:36.036Z,99978.98
2018-11-21T05:29:05.112Z,99978.66
2018-11-21T05:31:33.971Z,99980.06
2018-11-21T05:34:02.713Z,99978.69
2018-11-21T05:36:31.492Z,99972.41
2018-11-21T05:39:00.233Z,99971.35
2018-11-21T05:41:28.955Z,99982.89
2018-11-21T05:43:57.704Z,99980.22
2018-11-21T05:46:30.317Z,99986.01
2018-11-21T05:48:59.179Z,99982.86
2018-11-21T05:51:27.949Z,99985.01
2018-11-21T05:53:56.825Z,99982.66
2018-11-21T05:56:25.951Z,99982.80
2018-11-21T05:58:55.015Z,99984.95
2018-11-21T06:01:23.784Z,99992.80
2018-11-21T06:03:52.626Z,99995.95
2018-11-21T06:06:25.440Z,99995.95
2018-11-21T06:08:55.180Z,100002.58
2018-11-21T06:11:26.818Z,100002.25
2018-11-21T06:14:00.591Z,100007.32
2018-11-21T06:16:29.498Z,100010.89
2018-11-21T06:18:58.255Z,100017.94
2018-11-21T06:21:29.093Z,100015.88
2018-11-21T06:23:57.955Z,100021.52
2018-11-21T06:26:26.752Z,100020.02
2018-11-21T06:28:58.332Z,100021.38
2018-11-21T06:31:30.852Z,100022.45
2018-11-21T06:34:05.428Z,100018.46
2018-11-21T06:36:34.237Z,100022.61
2018-11-21T06:39:03.137Z,100022.83
2018-11-21T06:41:31.971Z,100016.77
2018-11-21T06:44:00.844Z,100029.00
2018-11-21T06:46:31.252Z,100033.06
2018-11-21T06:49:05.671Z,100033.28
2018-11-21T06:51:35.323Z,100032.52
2018-11-21T06:54:03.493Z,100041.89
2018-11-21T06:56:32.549Z,100044.78
2018-11-21T06:59:01.473Z,100041.34
2018-11-21T07:01:30.443Z,100050.03
2018-11-21T07:03:59.512Z,100054.32
2018-11-21T07:06:29.328Z,100056.07
2018-11-21T07:09:00.077Z,100054.77
2018-11-21T07:11:29.278Z,100054.77
2018-11-21T07:13:58.890Z,100058.44
2018-11-21T07:16:27.670Z,100056.36
2018-11-21T07:18:56.452Z,100061.45
2018-11-21T07:21:25.383Z,100063.70
2018-11-21T07:23:54.246Z,100068.98
2018-11-21T07:26:24.481Z,100064.02
2018-11-21T07:28:52.084Z,100064.54
2018-11-21T07:31:21.022Z,100071.03
2018-11-21T07:33:50.352Z,100075.57
2018-11-21T07:36:19.169Z,100073.63
2018-11-21T07:38:48.390Z,100079.20
2018-11-21T07:41:17.940Z,100078.36
2018-11-21T07:43:47.341Z,100078.05
2018-11-21T07:46:16.098Z,100085.69
2018-11-21T07:48:45.232Z,100083.18
2018-11-21T07:51:14.037Z,100083.11
2018-11-21T07:53:42.853Z,100093.29
2018-11-21T07:57:11.063Z,100101.22
2018-11-21T07:59:57.550Z,100098.94
2018-11-21T08:02:31.833Z,100101.52
2018-11-21T08:05:06.230Z,100099.31
2018-11-21T08:07:43.451Z,100101.99
2018-11-21T08:10:30.097Z,100100.78
2018-11-21T08:13:36.948Z,100095.34
2018-11-21T08:16:37.305Z,100102.98
2018-11-21T08:19:24.628Z,100105.95
2018-11-21T08:22:18.396Z,100112.30
2018-11-21T08:25:04.909Z,100121.16
2018-11-21T08:27:52.946Z,100124.36
2018-11-21T08:30:22.045Z,100128.27
2018-11-21T08:32:51.061Z,100131.55
2018-11-21T08:35:20.214Z,100136.39
2018-11-21T08:37:49.856Z,100134.24
2018-11-21T08:40:18.971Z,100138.96
2018-11-21T08:42:48.395Z,100144.69
2018-11-21T08:45:17.415Z,100149.13
2018-11-21T08:47:46.228Z,100147.91
2018-11-21T08:50:15.229Z,100152.65
2018-11-21T08:52:44.072Z,100155.09
2018-11-21T08:55:12.998Z,100153.78
2018-11-21T08:57:42.176Z,100148.47
2018-11-21T09:00:13.502Z,100144.77
2018-11-21T09:02:42.476Z,100148.38
2018-11-21T09:05:11.657Z,100151.09
2018-11-21T09:07:41.757Z,100141.39
2018-11-21T09:10:15.455Z,100147.80
2018-11-21T09:12:44.213Z,100147.61
2018-11-21T09:15:14.650Z,100153.56
2018-11-21T09:17:44.191Z,100157.17
2018-11-21T09:20:14.976Z,100158.93
2018-11-21T09:22:43.760Z,100158.45
2018-11-21T09:25:13.039Z,100166.84
2018-11-21T09:27:42.427Z,100159.30
2018-11-21T09:30:16.324Z,100165.70
2018-11-21T09:32:46.449Z,100172.02
2018-11-21T09:35:17.294Z,100167.33
2018-11-21T09:37:51.603Z,100169.53
2018-11-21T09:40:21.766Z,100170.97
2018-11-21T09:42:52.352Z,100171.33
2018-11-21T09:45:22.267Z,100166.80
2018-11-21T09:47:53.305Z,100166.96
2018-11-21T09:50:26.497Z,100168.92
2018-11-21T09:52:55.303Z,100170.54
2018-11-21T09:55:24.412Z,100171.22
2018-11-21T09:57:56.092Z,100174.34
2018-11-21T10:01:18.744Z,100172.27
2018-11-21T10:03:49.756Z,100165.87
2018-11-21T10:06:27.833Z,100167.33
2018-11-21T10:08:58.613Z,100165.78
2018-11-21T10:11:28.526Z,100170.23
2018-11-21T10:13:57.899Z,100161.58
2018-11-21T10:16:31.710Z,100161.12
2018-11-21T10:19:00.998Z,100162.80
2018-11-21T10:21:32.154Z,100163.22
2018-11-21T10:24:01.022Z,100163.14
2018-11-21T10:26:29.861Z,100166.45
2018-11-21T10:28:58.875Z,100168.38
2018-11-21T10:31:28.131Z,100164.52
2018-11-21T10:33:56.904Z,100165.84
2018-11-21T10:36:35.151Z,100165.30
2018-11-21T10:39:07.259Z,100163.61
2018-11-21T10:41:39.564Z,100167.86
2018-11-21T10:44:08.678Z,100165.36
2018-11-21T10:46:37.783Z,100164.34
2018-11-21T10:49:07.345Z,100161.00
2018-11-21T10:51:43.374Z,100162.77
2018-11-21T10:54:15.215Z,100164.62
2018-11-21T10:56:49.602Z,100165.22
2018-11-21T10:59:24.087Z,100169.52
2018-11-21T11:02:11.316Z,100158.79
2018-11-21T11:05:13.349Z,100167.58
2018-11-21T11:08:02.490Z,100168.45
2018-11-21T11:10:48.681Z,100173.09
2018-11-21T11:13:40.534Z,100174.95
2018-11-21T11:16:31.597Z,100173.20
2018-11-21T11:19:37.551Z,100179.23
2018-11-21T11:22:31.240Z,100175.82
2018-11-21T11:25:20.556Z,100175.94
2018-11-21T11:28:07.575Z,100176.30
2018-11-21T11:31:02.489Z,100169.52
2018-11-21T11:33:59.348Z,100174.71
2018-11-21T11:36:51.893Z,100176.75
2018-11-21T11:39:49.509Z,100184.03
2018-11-21T11:42:42.325Z,100180.33
2018-11-21T11:45:29.156Z,100187.30
2018-11-21T11:48:17.511Z,100182.83
2018-11-21T11:51:20.289Z,100186.98
2018-11-21T11:54:09.041Z,100182.38
2018-11-21T11:56:43.628Z,100184.88
2018-11-21T11:59:32.250Z,100183.22
2018-11-21T12:02:20.755Z,100185.74
2018-11-21T12:05:01.553Z,100188.25
2018-11-21T12:07:49.609Z,100185.02
2018-11-21T12:10:34.900Z,100184.80
2018-11-21T12:13:21.660Z,100189.23
2018-11-21T12:16:12.732Z,100182.13
2018-11-21T12:19:02.477Z,100184.27
2018-11-21T12:21:49.159Z,100185.95
2018-11-21T12:24:46.226Z,100181.06
2018-11-21T12:27:40.387Z,100184.91
2018-11-21T12:30:25.866Z,100190.47
2018-11-21T12:33:16.837Z,100182.45
2018-11-21T12:36:10.959Z,100179.77
2018-11-21T12:39:18.430Z,100181.45
2018-11-21T12:42:07.169Z,100181.92
2018-11-21T12:45:00.204Z,100183.45
2018-11-21T12:47:47.442Z,100176.95
2018-11-21T12:50:36.936Z,100178.61
2018-11-21T12:53:23.868Z,100180.76
2018-11-21T12:56:10.371Z,100174.02
2018-11-21T12:58:50.204Z,100173.12
2018-11-21T13:01:53.561Z,100182.08
2018-11-21T13:04:35.619Z,100179.77
2018-11-21T13:07:41.501Z,100188.42
2018-11-21T13:10:32.319Z,100186.73
2018-11-21T13:13:25.917Z,100185.05
2018-11-21T13:16:14.748Z,100190.00
2018-11-21T13:19:01.201Z,100193.86
2018-11-21T13:21:37.466Z,100184.52
2018-11-21T13:24:15.993Z,100188.88
2018-11-21T13:27:15.731Z,100192.00
2018-11-21T13:30:01.114Z,100195.57
2018-11-21T13:32:51.868Z,100198.21
2018-11-21T13:35:40.400Z,100201.13
2018-11-21T13:38:27.150Z,100204.41
2018-11-21T13:41:12.993Z,100209.00
2018-11-21T13:44:07.762Z,100208.51
2018-11-21T13:46:58.595Z,100209.45
2018-11-21T13:49:55.506Z,100210.36
2018-11-21T13:52:49.691Z,100215.19
2018-11-21T13:55:19.257Z,100214.26
2018-11-21T13:57:48.402Z,100212.10
2018-11-21T14:00:17.245Z,100208.31
2018-11-21T14:02:46.432Z,100209.09
2018-11-21T14:05:18.379Z,100210.05
2018-11-21T14:07:47.218Z,100210.81
2018-11-21T14:10:23.489Z,100216.11
2018-11-21T14:12:54.369Z,100220.16
2018-11-21T14:15:23.309Z,100220.59
2018-11-21T14:17:52.002Z,100219.67
2018-11-21T14:20:21.179Z,100216.71
2018-11-21T14:22:49.991Z,100219.67
2018-11-21T14:25:19.013Z,100213.94
2018-11-21T14:27:55.302Z,100216.27
2018-11-21T14:30:24.832Z,100217.89
2018-11-21T14:32:56.544Z,100213.93
2018-11-21T14:35:25.338Z,100223.89
2018-11-21T14:37:59.826Z,100219.16
2018-11-21T14:40:33.860Z,100222.59
2018-11-21T14:43:11.011Z,100222.20
2018-11-21T14:45:40.165Z,100217.80
2018-11-21T14:48:14.300Z,100218.59
2018-11-21T14:50:44.836Z,100213.63
2018-11-21T14:53:17.153Z,100217.67
2018-11-21T14:55:46.664Z,100221.45
2018-11-21T14:58:15.438Z,100226.36
2018-11-21T15:00:44.304Z,100226.92
2018-11-21T15:03:18.318Z,100229.15
2018-11-21T15:05:42.146Z,100230.49
2018-11-21T15:08:11.135Z,100229.64
2018-11-21T15:10:42.921Z,100238.90
2018-11-21T15:13:11.714Z,100245.13
2018-11-21T15:15:40.549Z,100241.80
2018-11-21T15:18:09.337Z,100245.06
2018-11-21T15:20:38.357Z,100253.30
2018-11-21T15:23:10.005Z,100249.74
2018-11-21T15:25:39.791Z,100252.34
2018-11-21T15:28:11.681Z,100254.78
2018-11-21T15:30:40.728Z,100258.33
2018-11-21T15:33:09.791Z,100256.53
2018-11-21T15:35:38.854Z,100258.50
2018-11-21T15:38:07.784Z,100257.37
2018-11-21T15:40:36.544Z,100255.00
2018-11-21T15:43:05.523Z,100258.67
2018-11-21T15:45:34.328Z,100258.17
